sensor_id;sensor_type;location;lat;lon;timestamp;temperature;humidity
27858;DHT22;16852;51.446;6.528;2023-03-19T00:01:59;13.90;99.90
27858;DHT22;16852;51.446;6.528;2023-03-19T00:03:59;13.90;99.90
27858;DHT22;16852;51.446;6.528;2023-03-19T00:06:01;13.90;99.90
27858;DHT22;16852;51.446;6.528;2023-03-19T00:08:01;14.00;99.90
27858;DHT22;16852;51.446;6.528;2023-03-19T00:10:02;14.00;99.90
27858;DHT22;16852;51.446;6.528;2023-03-19T00:12:03;14.00;99.90
27858;DHT22;16852;51.446;6.528;2023-03-19T00:14:04;14.00;99.90
27858;DHT22;16852;51.446;6.528;2023-03-19T00:16:06;14.10;99.90
27858;DHT22;16852;51.446;6.528;2023-03-19T00:18:06;14.10;99.90
27858;DHT22;16852;51.446;6.528;2023-03-19T00:20:09;14.10;99.90
27858;DHT22;16852;51.446;6.528;2023-03-19T00:22:10;14.10;99.90
27858;DHT22;16852;51.446;6.528;2023-03-19T00:24:11;14.10;99.90
27858;DHT22;16852;51.446;6.528;2023-03-19T00:26:12;14.10;99.90
27858;DHT22;16852;51.446;6.528;2023-03-19T00:28:13;14.10;99.90
27858;DHT22;16852;51.446;6.528;2023-03-19T00:30:13;14.10;99.90
27858;DHT22;16852;51.446;6.528;2023-03-19T00:32:14;14.10;99.90
27858;DHT22;16852;51.446;6.528;2023-03-19T00:34:15;14.10;99.90
27858;DHT22;16852;51.446;6.528;2023-03-19T00:36:18;14.10;99.90
27858;DHT22;16852;51.446;6.528;2023-03-19T00:38:19;14.10;99.90
27858;DHT22;16852;51.446;6.528;2023-03-19T00:40:20;14.10;99.90
27858;DHT22;16852;51.446;6.528;2023-03-19T00:42:21;14.10;99.90
27858;DHT22;16852;51.446;6.528;2023-03-19T00:44:21;14.10;99.90
27858;DHT22;16852;51.446;6.528;2023-03-19T00:46:23;14.10;99.90
27858;DHT22;16852;51.446;6.528;2023-03-19T00:48:24;14.10;99.90
27858;DHT22;16852;51.446;6.528;2023-03-19T00:50:25;14.10;99.90
27858;DHT22;16852;51.446;6.528;2023-03-19T00:52:25;14.10;99.90
27858;DHT22;16852;51.446;6.528;2023-03-19T00:54:26;14.10;99.90
27858;DHT22;16852;51.446;6.528;2023-03-19T00:56:27;14.10;99.90
27858;DHT22;16852;51.446;6.528;2023-03-19T00:58:27;14.10;99.90
27858;DHT22;16852;51.446;6.528;2023-03-19T01:00:28;14.10;99.90
27858;DHT22;16852;51.446;6.528;2023-03-19T01:02:30;14.10;99.90
27858;DHT22;16852;51.446;6.528;2023-03-19T01:04:31;14.10;99.90
27858;DHT22;16852;51.446;6.528;2023-03-19T01:06:32;14.10;99.90
27858;DHT22;16852;51.446;6.528;2023-03-19T01:08:32;14.10;99.90
27858;DHT22;16852;51.446;6.528;2023-03-19T01:10:33;14.10;99.90
27858;DHT22;16852;51.446;6.528;2023-03-19T01:12:34;14.00;99.90
27858;DHT22;16852;51.446;6.528;2023-03-19T01:14:35;14.00;99.90
27858;DHT22;16852;51.446;6.528;2023-03-19T01:16:36;13.90;99.90
27858;DHT22;16852;51.446;6.528;2023-03-19T01:18:36;13.80;99.90
27858;DHT22;16852;51.446;6.528;2023-03-19T01:20:38;13.80;99.90
27858;DHT22;16852;51.446;6.528;2023-03-19T01:22:39;13.70;99.90
27858;DHT22;16852;51.446;6.528;2023-03-19T01:24:43;13.60;99.90
27858;DHT22;16852;51.446;6.528;2023-03-19T01:26:44;13.50;99.90
27858;DHT22;16852;51.446;6.528;2023-03-19T01:28:44;13.40;99.90
27858;DHT22;16852;51.446;6.528;2023-03-19T01:30:45;13.30;99.90
27858;DHT22;16852;51.446;6.528;2023-03-19T01:32:46;13.30;99.90
27858;DHT22;16852;51.446;6.528;2023-03-19T01:34:46;13.20;99.90
27858;DHT22;16852;51.446;6.528;2023-03-19T01:36:47;13.20;99.90
27858;DHT22;16852;51.446;6.528;2023-03-19T01:38:48;13.10;99.90
27858;DHT22;16852;51.446;6.528;2023-03-19T01:40:48;13.10;99.90
27858;DHT22;16852;51.446;6.528;2023-03-19T01:43:06;13.10;99.90
27858;DHT22;16852;51.446;6.528;2023-03-19T01:45:31;13.00;99.90
27858;DHT22;16852;51.446;6.528;2023-03-19T01:47:39;12.90;99.90
27858;DHT22;16852;51.446;6.528;2023-03-19T01:49:41;12.90;99.90
27858;DHT22;16852;51.446;6.528;2023-03-19T01:51:46;12.90;99.90
27858;DHT22;16852;51.446;6.528;2023-03-19T01:53:50;12.80;99.90
27858;DHT22;16852;51.446;6.528;2023-03-19T01:55:55;12.80;99.90
27858;DHT22;16852;51.446;6.528;2023-03-19T01:57:57;12.70;99.90
27858;DHT22;16852;51.446;6.528;2023-03-19T02:00:00;12.70;99.90
27858;DHT22;16852;51.446;6.528;2023-03-19T02:04:17;12.70;99.90
27858;DHT22;16852;51.446;6.528;2023-03-19T02:06:19;12.70;99.90
27858;DHT22;16852;51.446;6.528;2023-03-19T02:08:22;12.70;99.90
27858;DHT22;16852;51.446;6.528;2023-03-19T02:10:24;12.70;99.90
27858;DHT22;16852;51.446;6.528;2023-03-19T02:12:25;12.70;99.90
27858;DHT22;16852;51.446;6.528;2023-03-19T02:14:26;12.70;99.90
27858;DHT22;16852;51.446;6.528;2023-03-19T02:16:27;12.70;99.90
27858;DHT22;16852;51.446;6.528;2023-03-19T02:18:27;12.70;99.90
27858;DHT22;16852;51.446;6.528;2023-03-19T02:20:33;12.70;99.90
27858;DHT22;16852;51.446;6.528;2023-03-19T02:22:35;12.60;99.90
27858;DHT22;16852;51.446;6.528;2023-03-19T02:24:44;12.60;99.90
27858;DHT22;16852;51.446;6.528;2023-03-19T02:26:49;12.60;99.90
27858;DHT22;16852;51.446;6.528;2023-03-19T02:28:51;12.60;99.90
27858;DHT22;16852;51.446;6.528;2023-03-19T02:30:52;12.60;99.90
27858;DHT22;16852;51.446;6.528;2023-03-19T02:32:53;12.60;99.90
27858;DHT22;16852;51.446;6.528;2023-03-19T02:34:53;12.60;99.90
27858;DHT22;16852;51.446;6.528;2023-03-19T02:36:57;12.60;99.90
27858;DHT22;16852;51.446;6.528;2023-03-19T02:39:02;12.60;99.90
27858;DHT22;16852;51.446;6.528;2023-03-19T02:41:06;12.60;99.90
27858;DHT22;16852;51.446;6.528;2023-03-19T02:43:07;12.70;99.90
27858;DHT22;16852;51.446;6.528;2023-03-19T02:45:08;12.70;99.90
27858;DHT22;16852;51.446;6.528;2023-03-19T02:47:09;12.70;99.90
27858;DHT22;16852;51.446;6.528;2023-03-19T02:49:09;12.70;99.90
27858;DHT22;16852;51.446;6.528;2023-03-19T02:51:10;12.70;99.90
27858;DHT22;16852;51.446;6.528;2023-03-19T02:53:11;12.70;99.90
27858;DHT22;16852;51.446;6.528;2023-03-19T02:55:12;12.70;99.90
27858;DHT22;16852;51.446;6.528;2023-03-19T02:57:13;12.70;99.90
27858;DHT22;16852;51.446;6.528;2023-03-19T02:59:14;12.70;99.90
27858;DHT22;16852;51.446;6.528;2023-03-19T03:01:14;12.80;99.90
27858;DHT22;16852;51.446;6.528;2023-03-19T03:03:15;12.80;99.90
27858;DHT22;16852;51.446;6.528;2023-03-19T03:05:16;12.80;99.90
27858;DHT22;16852;51.446;6.528;2023-03-19T03:07:17;12.80;99.90
27858;DHT22;16852;51.446;6.528;2023-03-19T03:09:18;12.80;99.90
27858;DHT22;16852;51.446;6.528;2023-03-19T03:11:19;12.80;99.90
27858;DHT22;16852;51.446;6.528;2023-03-19T03:13:20;12.90;99.90
27858;DHT22;16852;51.446;6.528;2023-03-19T03:15:20;12.90;99.90
27858;DHT22;16852;51.446;6.528;2023-03-19T03:17:21;12.90;99.90
27858;DHT22;16852;51.446;6.528;2023-03-19T03:19:22;12.90;99.90
27858;DHT22;16852;51.446;6.528;2023-03-19T03:21:22;12.90;99.90
27858;DHT22;16852;51.446;6.528;2023-03-19T03:23:23;12.90;99.90
27858;DHT22;16852;51.446;6.528;2023-03-19T03:25:23;12.90;99.90
27858;DHT22;16852;51.446;6.528;2023-03-19T03:27:24;12.90;99.90
27858;DHT22;16852;51.446;6.528;2023-03-19T03:29:26;12.90;99.90
27858;DHT22;16852;51.446;6.528;2023-03-19T03:31:26;12.90;99.90
27858;DHT22;16852;51.446;6.528;2023-03-19T03:33:28;12.90;99.90
27858;DHT22;16852;51.446;6.528;2023-03-19T03:35:29;12.90;99.90
27858;DHT22;16852;51.446;6.528;2023-03-19T03:37:30;12.90;99.90
27858;DHT22;16852;51.446;6.528;2023-03-19T03:39:30;12.90;99.90
27858;DHT22;16852;51.446;6.528;2023-03-19T03:41:31;12.90;99.90
27858;DHT22;16852;51.446;6.528;2023-03-19T03:43:32;12.90;99.90
27858;DHT22;16852;51.446;6.528;2023-03-19T03:45:33;12.90;99.90
27858;DHT22;16852;51.446;6.528;2023-03-19T03:47:33;12.90;99.90
27858;DHT22;16852;51.446;6.528;2023-03-19T03:49:35;12.90;99.90
27858;DHT22;16852;51.446;6.528;2023-03-19T03:51:36;12.90;99.90
27858;DHT22;16852;51.446;6.528;2023-03-19T03:53:36;12.90;99.90
27858;DHT22;16852;51.446;6.528;2023-03-19T03:55:37;12.90;99.90
27858;DHT22;16852;51.446;6.528;2023-03-19T03:57:38;12.90;99.90
27858;DHT22;16852;51.446;6.528;2023-03-19T03:59:38;12.90;99.90
27858;DHT22;16852;51.446;6.528;2023-03-19T04:01:39;12.90;99.90
27858;DHT22;16852;51.446;6.528;2023-03-19T04:03:40;12.90;99.90
27858;DHT22;16852;51.446;6.528;2023-03-19T04:05:40;12.90;99.90
27858;DHT22;16852;51.446;6.528;2023-03-19T04:07:41;13.00;99.90
27858;DHT22;16852;51.446;6.528;2023-03-19T04:09:42;12.90;99.90
27858;DHT22;16852;51.446;6.528;2023-03-19T04:11:43;13.00;99.90
27858;DHT22;16852;51.446;6.528;2023-03-19T04:13:43;13.00;99.90
27858;DHT22;16852;51.446;6.528;2023-03-19T04:15:44;13.00;99.90
27858;DHT22;16852;51.446;6.528;2023-03-19T04:17:44;13.00;99.90
27858;DHT22;16852;51.446;6.528;2023-03-19T04:19:45;13.00;99.90
27858;DHT22;16852;51.446;6.528;2023-03-19T04:21:46;13.10;99.90
27858;DHT22;16852;51.446;6.528;2023-03-19T04:23:47;13.10;99.90
27858;DHT22;16852;51.446;6.528;2023-03-19T04:25:47;13.00;99.90
27858;DHT22;16852;51.446;6.528;2023-03-19T04:27:48;13.00;99.90
27858;DHT22;16852;51.446;6.528;2023-03-19T04:29:48;13.00;99.90
27858;DHT22;16852;51.446;6.528;2023-03-19T04:31:49;13.00;99.90
27858;DHT22;16852;51.446;6.528;2023-03-19T04:33:50;13.00;99.90
27858;DHT22;16852;51.446;6.528;2023-03-19T04:35:51;13.00;99.90
27858;DHT22;16852;51.446;6.528;2023-03-19T04:37:51;13.00;99.90
27858;DHT22;16852;51.446;6.528;2023-03-19T04:39:52;13.00;99.90
27858;DHT22;16852;51.446;6.528;2023-03-19T04:41:53;13.10;99.90
27858;DHT22;16852;51.446;6.528;2023-03-19T04:43:54;13.00;99.90
27858;DHT22;16852;51.446;6.528;2023-03-19T04:45:55;13.10;99.90
27858;DHT22;16852;51.446;6.528;2023-03-19T04:47:56;13.10;99.90
27858;DHT22;16852;51.446;6.528;2023-03-19T04:49:57;13.10;99.90
27858;DHT22;16852;51.446;6.528;2023-03-19T04:51:58;13.10;99.90
27858;DHT22;16852;51.446;6.528;2023-03-19T04:53:58;13.10;99.90
27858;DHT22;16852;51.446;6.528;2023-03-19T04:55:59;13.10;99.90
27858;DHT22;16852;51.446;6.528;2023-03-19T04:58:00;13.10;99.90
27858;DHT22;16852;51.446;6.528;2023-03-19T05:00:01;13.10;99.90
27858;DHT22;16852;51.446;6.528;2023-03-19T05:02:02;13.10;99.90
27858;DHT22;16852;51.446;6.528;2023-03-19T05:04:03;13.10;99.90
27858;DHT22;16852;51.446;6.528;2023-03-19T05:06:04;13.10;99.90
27858;DHT22;16852;51.446;6.528;2023-03-19T05:08:04;13.00;99.90
27858;DHT22;16852;51.446;6.528;2023-03-19T05:10:06;13.10;99.90
27858;DHT22;16852;51.446;6.528;2023-03-19T05:12:07;13.10;99.90
27858;DHT22;16852;51.446;6.528;2023-03-19T05:14:08;13.00;99.90
27858;DHT22;16852;51.446;6.528;2023-03-19T05:16:08;13.00;99.90
27858;DHT22;16852;51.446;6.528;2023-03-19T05:18:10;13.00;99.90
27858;DHT22;16852;51.446;6.528;2023-03-19T05:20:11;13.00;99.90
27858;DHT22;16852;51.446;6.528;2023-03-19T05:22:12;12.90;99.90
27858;DHT22;16852;51.446;6.528;2023-03-19T05:24:12;12.90;99.90
27858;DHT22;16852;51.446;6.528;2023-03-19T05:26:13;12.90;99.90
27858;DHT22;16852;51.446;6.528;2023-03-19T05:28:15;12.80;99.90
27858;DHT22;16852;51.446;6.528;2023-03-19T05:30:16;12.80;99.90
27858;DHT22;16852;51.446;6.528;2023-03-19T05:32:17;12.80;99.90
27858;DHT22;16852;51.446;6.528;2023-03-19T05:34:18;12.80;99.90
27858;DHT22;16852;51.446;6.528;2023-03-19T05:36:19;12.80;99.90
27858;DHT22;16852;51.446;6.528;2023-03-19T05:38:19;12.80;99.90
27858;DHT22;16852;51.446;6.528;2023-03-19T05:40:21;12.80;99.90
27858;DHT22;16852;51.446;6.528;2023-03-19T05:42:22;12.80;99.90
27858;DHT22;16852;51.446;6.528;2023-03-19T05:44:23;12.80;99.90
27858;DHT22;16852;51.446;6.528;2023-03-19T05:46:23;12.80;99.90
27858;DHT22;16852;51.446;6.528;2023-03-19T05:48:24;12.80;99.90
27858;DHT22;16852;51.446;6.528;2023-03-19T05:50:25;12.70;99.90
27858;DHT22;16852;51.446;6.528;2023-03-19T05:52:26;12.70;99.90
27858;DHT22;16852;51.446;6.528;2023-03-19T05:54:27;12.70;99.90
27858;DHT22;16852;51.446;6.528;2023-03-19T05:56:28;12.70;99.90
27858;DHT22;16852;51.446;6.528;2023-03-19T05:58:29;12.70;99.90
27858;DHT22;16852;51.446;6.528;2023-03-19T06:00:30;12.70;99.90
27858;DHT22;16852;51.446;6.528;2023-03-19T06:02:33;12.70;99.90
27858;DHT22;16852;51.446;6.528;2023-03-19T06:04:33;12.70;99.90
27858;DHT22;16852;51.446;6.528;2023-03-19T06:06:34;12.70;99.90
27858;DHT22;16852;51.446;6.528;2023-03-19T06:08:34;12.70;99.90
27858;DHT22;16852;51.446;6.528;2023-03-19T06:10:35;12.70;99.90
27858;DHT22;16852;51.446;6.528;2023-03-19T06:12:36;12.70;99.90
27858;DHT22;16852;51.446;6.528;2023-03-19T06:14:36;12.70;99.90
27858;DHT22;16852;51.446;6.528;2023-03-19T06:16:37;12.70;99.90
27858;DHT22;16852;51.446;6.528;2023-03-19T06:18:38;12.70;99.90
27858;DHT22;16852;51.446;6.528;2023-03-19T06:20:38;12.70;99.90
27858;DHT22;16852;51.446;6.528;2023-03-19T06:22:39;12.70;99.90
27858;DHT22;16852;51.446;6.528;2023-03-19T06:24:40;12.70;99.90
27858;DHT22;16852;51.446;6.528;2023-03-19T06:26:40;12.70;99.90
27858;DHT22;16852;51.446;6.528;2023-03-19T06:28:41;12.70;99.90
27858;DHT22;16852;51.446;6.528;2023-03-19T06:30:41;12.70;99.90
27858;DHT22;16852;51.446;6.528;2023-03-19T06:32:42;12.70;99.90
27858;DHT22;16852;51.446;6.528;2023-03-19T06:34:43;12.70;99.90
27858;DHT22;16852;51.446;6.528;2023-03-19T06:36:43;12.70;99.90
27858;DHT22;16852;51.446;6.528;2023-03-19T06:38:44;12.70;99.90
27858;DHT22;16852;51.446;6.528;2023-03-19T06:40:45;12.70;99.90
27858;DHT22;16852;51.446;6.528;2023-03-19T06:42:46;12.70;99.90
27858;DHT22;16852;51.446;6.528;2023-03-19T06:44:47;12.70;99.90
27858;DHT22;16852;51.446;6.528;2023-03-19T06:46:48;12.70;99.90
27858;DHT22;16852;51.446;6.528;2023-03-19T06:48:48;12.60;99.90
27858;DHT22;16852;51.446;6.528;2023-03-19T06:50:49;12.70;99.90
27858;DHT22;16852;51.446;6.528;2023-03-19T06:52:49;12.70;99.90
27858;DHT22;16852;51.446;6.528;2023-03-19T06:54:50;12.70;99.90
27858;DHT22;16852;51.446;6.528;2023-03-19T06:56:50;12.70;99.90
27858;DHT22;16852;51.446;6.528;2023-03-19T06:58:51;12.70;99.90
27858;DHT22;16852;51.446;6.528;2023-03-19T07:00:52;12.70;99.90
27858;DHT22;16852;51.446;6.528;2023-03-19T07:02:52;12.70;99.90
27858;DHT22;16852;51.446;6.528;2023-03-19T07:04:53;12.60;99.90
27858;DHT22;16852;51.446;6.528;2023-03-19T07:06:53;12.60;99.90
27858;DHT22;16852;51.446;6.528;2023-03-19T07:08:54;12.70;99.90
27858;DHT22;16852;51.446;6.528;2023-03-19T07:10:55;12.60;99.90
27858;DHT22;16852;51.446;6.528;2023-03-19T07:12:57;12.60;99.90
27858;DHT22;16852;51.446;6.528;2023-03-19T07:14:58;12.60;99.90
27858;DHT22;16852;51.446;6.528;2023-03-19T07:16:58;12.60;99.90
27858;DHT22;16852;51.446;6.528;2023-03-19T07:18:59;12.60;99.90
27858;DHT22;16852;51.446;6.528;2023-03-19T07:21:00;12.60;99.90
27858;DHT22;16852;51.446;6.528;2023-03-19T07:23:00;12.60;99.90
27858;DHT22;16852;51.446;6.528;2023-03-19T07:25:01;12.60;99.90
27858;DHT22;16852;51.446;6.528;2023-03-19T07:27:02;12.60;99.90
27858;DHT22;16852;51.446;6.528;2023-03-19T07:29:02;12.70;99.90
27858;DHT22;16852;51.446;6.528;2023-03-19T07:31:03;12.70;99.90
27858;DHT22;16852;51.446;6.528;2023-03-19T07:33:05;12.70;99.90
27858;DHT22;16852;51.446;6.528;2023-03-19T07:35:07;12.80;99.90
27858;DHT22;16852;51.446;6.528;2023-03-19T07:37:08;12.80;99.90
27858;DHT22;16852;51.446;6.528;2023-03-19T07:39:09;12.80;99.90
27858;DHT22;16852;51.446;6.528;2023-03-19T07:41:10;12.90;99.90
27858;DHT22;16852;51.446;6.528;2023-03-19T07:43:11;12.90;99.90
27858;DHT22;16852;51.446;6.528;2023-03-19T07:45:12;12.90;99.90
27858;DHT22;16852;51.446;6.528;2023-03-19T07:47:12;13.00;99.90
27858;DHT22;16852;51.446;6.528;2023-03-19T07:49:13;13.00;99.90
27858;DHT22;16852;51.446;6.528;2023-03-19T07:51:13;13.00;99.90
27858;DHT22;16852;51.446;6.528;2023-03-19T07:53:14;13.00;99.90
27858;DHT22;16852;51.446;6.528;2023-03-19T07:55:15;13.00;99.90
27858;DHT22;16852;51.446;6.528;2023-03-19T07:57:16;13.10;99.90
27858;DHT22;16852;51.446;6.528;2023-03-19T07:59:16;13.10;99.90
27858;DHT22;16852;51.446;6.528;2023-03-19T08:01:17;13.10;99.90
27858;DHT22;16852;51.446;6.528;2023-03-19T08:03:18;13.10;99.90
27858;DHT22;16852;51.446;6.528;2023-03-19T08:05:18;13.20;99.90
27858;DHT22;16852;51.446;6.528;2023-03-19T08:07:19;13.20;99.90
27858;DHT22;16852;51.446;6.528;2023-03-19T08:09:19;13.20;99.90
27858;DHT22;16852;51.446;6.528;2023-03-19T08:11:21;13.20;99.90
27858;DHT22;16852;51.446;6.528;2023-03-19T08:13:22;13.20;99.90
27858;DHT22;16852;51.446;6.528;2023-03-19T08:15:22;13.30;99.90
27858;DHT22;16852;51.446;6.528;2023-03-19T08:17:23;13.30;99.90
27858;DHT22;16852;51.446;6.528;2023-03-19T08:19:23;13.30;99.90
27858;DHT22;16852;51.446;6.528;2023-03-19T08:21:24;13.40;99.90
27858;DHT22;16852;51.446;6.528;2023-03-19T08:23:25;13.50;99.90
27858;DHT22;16852;51.446;6.528;2023-03-19T08:25:26;13.60;99.90
27858;DHT22;16852;51.446;6.528;2023-03-19T08:27:27;13.50;99.90
27858;DHT22;16852;51.446;6.528;2023-03-19T08:29:29;13.60;99.90
27858;DHT22;16852;51.446;6.528;2023-03-19T08:31:30;13.60;99.90
27858;DHT22;16852;51.446;6.528;2023-03-19T08:33:30;13.70;99.90
27858;DHT22;16852;51.446;6.528;2023-03-19T08:35:31;13.70;99.90
27858;DHT22;16852;51.446;6.528;2023-03-19T08:37:32;13.80;99.90
27858;DHT22;16852;51.446;6.528;2023-03-19T08:39:32;13.90;99.90
27858;DHT22;16852;51.446;6.528;2023-03-19T08:41:33;14.00;99.90
27858;DHT22;16852;51.446;6.528;2023-03-19T08:43:35;14.10;99.90
27858;DHT22;16852;51.446;6.528;2023-03-19T08:45:38;14.10;99.90
27858;DHT22;16852;51.446;6.528;2023-03-19T08:47:39;14.20;99.90
27858;DHT22;16852;51.446;6.528;2023-03-19T08:49:40;14.20;99.90
27858;DHT22;16852;51.446;6.528;2023-03-19T08:51:40;14.20;99.90
27858;DHT22;16852;51.446;6.528;2023-03-19T08:53:41;14.30;99.90
27858;DHT22;16852;51.446;6.528;2023-03-19T08:55:42;14.30;99.90
27858;DHT22;16852;51.446;6.528;2023-03-19T08:57:43;14.30;99.90
27858;DHT22;16852;51.446;6.528;2023-03-19T08:59:43;14.20;99.90
27858;DHT22;16852;51.446;6.528;2023-03-19T09:01:44;14.20;99.90
27858;DHT22;16852;51.446;6.528;2023-03-19T09:03:45;14.20;99.90
27858;DHT22;16852;51.446;6.528;2023-03-19T09:05:46;14.10;99.90
27858;DHT22;16852;51.446;6.528;2023-03-19T09:07:47;14.10;99.90
27858;DHT22;16852;51.446;6.528;2023-03-19T09:09:49;14.10;99.90
27858;DHT22;16852;51.446;6.528;2023-03-19T09:11:50;14.00;99.90
27858;DHT22;16852;51.446;6.528;2023-03-19T09:13:51;14.10;99.90
27858;DHT22;16852;51.446;6.528;2023-03-19T09:15:52;14.10;99.90
27858;DHT22;16852;51.446;6.528;2023-03-19T09:17:52;14.00;99.90
27858;DHT22;16852;51.446;6.528;2023-03-19T09:19:53;14.00;99.90
27858;DHT22;16852;51.446;6.528;2023-03-19T09:21:53;14.00;99.90
27858;DHT22;16852;51.446;6.528;2023-03-19T09:23:54;14.00;99.90
27858;DHT22;16852;51.446;6.528;2023-03-19T09:25:55;14.00;99.90
27858;DHT22;16852;51.446;6.528;2023-03-19T09:27:56;14.00;99.90
27858;DHT22;16852;51.446;6.528;2023-03-19T09:29:56;13.90;99.90
27858;DHT22;16852;51.446;6.528;2023-03-19T09:31:57;13.90;99.90
27858;DHT22;16852;51.446;6.528;2023-03-19T09:33:58;14.00;99.90
27858;DHT22;16852;51.446;6.528;2023-03-19T09:35:58;13.90;99.90
27858;DHT22;16852;51.446;6.528;2023-03-19T09:38:00;14.00;99.90
27858;DHT22;16852;51.446;6.528;2023-03-19T09:40:01;14.00;99.90
27858;DHT22;16852;51.446;6.528;2023-03-19T09:44:19;14.00;99.90
27858;DHT22;16852;51.446;6.528;2023-03-19T09:46:26;14.10;99.90
27858;DHT22;16852;51.446;6.528;2023-03-19T09:48:38;14.10;99.90
27858;DHT22;16852;51.446;6.528;2023-03-19T09:50:40;14.20;99.90
27858;DHT22;16852;51.446;6.528;2023-03-19T09:54:50;14.20;99.90
27858;DHT22;16852;51.446;6.528;2023-03-19T09:56:52;14.20;99.90
27858;DHT22;16852;51.446;6.528;2023-03-19T09:58:53;14.20;99.90
27858;DHT22;16852;51.446;6.528;2023-03-19T10:00:54;14.30;99.90
27858;DHT22;16852;51.446;6.528;2023-03-19T10:03:14;14.30;99.90
27858;DHT22;16852;51.446;6.528;2023-03-19T10:05:26;14.30;99.90
27858;DHT22;16852;51.446;6.528;2023-03-19T10:08:08;14.40;99.90
27858;DHT22;16852;51.446;6.528;2023-03-19T10:12:42;14.40;99.90
27858;DHT22;16852;51.446;6.528;2023-03-19T10:15:18;14.40;99.90
27858;DHT22;16852;51.446;6.528;2023-03-19T10:17:31;14.50;99.90
27858;DHT22;16852;51.446;6.528;2023-03-19T10:19:48;14.50;99.90
27858;DHT22;16852;51.446;6.528;2023-03-19T10:21:56;14.60;99.90
27858;DHT22;16852;51.446;6.528;2023-03-19T10:26:36;14.70;99.90
27858;DHT22;16852;51.446;6.528;2023-03-19T10:28:37;14.80;99.90
27858;DHT22;16852;51.446;6.528;2023-03-19T10:30:40;14.90;99.90
27858;DHT22;16852;51.446;6.528;2023-03-19T10:32:47;15.00;99.90
27858;DHT22;16852;51.446;6.528;2023-03-19T10:34:52;15.10;99.90
27858;DHT22;16852;51.446;6.528;2023-03-19T10:37:05;15.20;99.90
27858;DHT22;16852;51.446;6.528;2023-03-19T10:39:07;15.40;99.90
27858;DHT22;16852;51.446;6.528;2023-03-19T10:41:18;15.50;99.90
27858;DHT22;16852;51.446;6.528;2023-03-19T10:43:24;15.60;99.90
27858;DHT22;16852;51.446;6.528;2023-03-19T10:47:27;15.60;99.90
27858;DHT22;16852;51.446;6.528;2023-03-19T10:49:27;15.70;99.90
27858;DHT22;16852;51.446;6.528;2023-03-19T10:51:28;15.60;99.90
27858;DHT22;16852;51.446;6.528;2023-03-19T10:55:34;15.60;99.90
27858;DHT22;16852;51.446;6.528;2023-03-19T10:57:35;15.60;99.90
27858;DHT22;16852;51.446;6.528;2023-03-19T10:59:36;15.70;99.90
27858;DHT22;16852;51.446;6.528;2023-03-19T11:01:40;15.70;99.90
27858;DHT22;16852;51.446;6.528;2023-03-19T11:03:55;15.70;99.90
27858;DHT22;16852;51.446;6.528;2023-03-19T11:08:18;15.70;99.90
27858;DHT22;16852;51.446;6.528;2023-03-19T11:10:21;15.70;99.90
27858;DHT22;16852;51.446;6.528;2023-03-19T11:12:29;15.80;99.90
27858;DHT22;16852;51.446;6.528;2023-03-19T11:14:41;15.80;99.90
27858;DHT22;16852;51.446;6.528;2023-03-19T11:19:20;15.90;99.90
27858;DHT22;16852;51.446;6.528;2023-03-19T11:21:29;15.80;99.90
27858;DHT22;16852;51.446;6.528;2023-03-19T11:23:37;15.80;99.90
27858;DHT22;16852;51.446;6.528;2023-03-19T11:25:49;15.90;99.90
27858;DHT22;16852;51.446;6.528;2023-03-19T11:28:00;15.90;99.90
27858;DHT22;16852;51.446;6.528;2023-03-19T11:30:02;15.80;99.90
27858;DHT22;16852;51.446;6.528;2023-03-19T11:32:24;15.80;99.90
27858;DHT22;16852;51.446;6.528;2023-03-19T11:34:58;15.80;99.90
27858;DHT22;16852;51.446;6.528;2023-03-19T11:47:09;15.80;99.90
27858;DHT22;16852;51.446;6.528;2023-03-19T11:49:18;15.90;99.90
27858;DHT22;16852;51.446;6.528;2023-03-19T11:54:14;16.00;99.90
27858;DHT22;16852;51.446;6.528;2023-03-19T12:00:55;16.20;99.90
27858;DHT22;16852;51.446;6.528;2023-03-19T12:05:31;16.20;99.90
27858;DHT22;16852;51.446;6.528;2023-03-19T12:08:05;16.20;99.90
27858;DHT22;16852;51.446;6.528;2023-03-19T12:12:29;16.20;99.90
27858;DHT22;16852;51.446;6.528;2023-03-19T12:16:58;16.30;99.90
27858;DHT22;16852;51.446;6.528;2023-03-19T12:23:46;16.40;99.90
27858;DHT22;16852;51.446;6.528;2023-03-19T12:26:00;16.40;99.90
27858;DHT22;16852;51.446;6.528;2023-03-19T12:28:12;16.50;99.90
27858;DHT22;16852;51.446;6.528;2023-03-19T12:30:21;16.60;99.90
27858;DHT22;16852;51.446;6.528;2023-03-19T12:32:28;16.60;99.90
27858;DHT22;16852;51.446;6.528;2023-03-19T12:34:47;16.60;99.90
27858;DHT22;16852;51.446;6.528;2023-03-19T12:37:14;16.70;99.90
27858;DHT22;16852;51.446;6.528;2023-03-19T12:39:20;16.60;99.90
27858;DHT22;16852;51.446;6.528;2023-03-19T12:41:26;16.70;99.90
27858;DHT22;16852;51.446;6.528;2023-03-19T12:45:58;16.70;99.90
27858;DHT22;16852;51.446;6.528;2023-03-19T12:48:07;16.70;99.90
27858;DHT22;16852;51.446;6.528;2023-03-19T12:50:12;16.70;99.90
27858;DHT22;16852;51.446;6.528;2023-03-19T12:54:26;16.60;99.90
27858;DHT22;16852;51.446;6.528;2023-03-19T12:56:53;16.60;99.90
27858;DHT22;16852;51.446;6.528;2023-03-19T12:59:04;16.70;99.90
27858;DHT22;16852;51.446;6.528;2023-03-19T13:01:11;16.70;99.90
27858;DHT22;16852;51.446;6.528;2023-03-19T13:03:24;16.80;99.90
27858;DHT22;16852;51.446;6.528;2023-03-19T13:05:38;16.80;99.90
27858;DHT22;16852;51.446;6.528;2023-03-19T13:10:08;16.90;99.90
27858;DHT22;16852;51.446;6.528;2023-03-19T13:12:27;16.90;99.90
27858;DHT22;16852;51.446;6.528;2023-03-19T13:18:49;16.70;99.90
27858;DHT22;16852;51.446;6.528;2023-03-19T13:23:06;16.50;99.90
27858;DHT22;16852;51.446;6.528;2023-03-19T13:25:24;16.60;99.90
27858;DHT22;16852;51.446;6.528;2023-03-19T13:27:33;16.50;99.90
27858;DHT22;16852;51.446;6.528;2023-03-19T13:29:35;16.50;99.90
27858;DHT22;16852;51.446;6.528;2023-03-19T13:31:38;16.50;99.90
27858;DHT22;16852;51.446;6.528;2023-03-19T13:33:38;16.50;99.90
27858;DHT22;16852;51.446;6.528;2023-03-19T13:35:43;16.50;99.90
27858;DHT22;16852;51.446;6.528;2023-03-19T13:38:01;16.50;99.90
27858;DHT22;16852;51.446;6.528;2023-03-19T13:40:04;16.50;99.90
27858;DHT22;16852;51.446;6.528;2023-03-19T13:42:07;16.50;99.90
27858;DHT22;16852;51.446;6.528;2023-03-19T13:50:29;16.70;99.90
27858;DHT22;16852;51.446;6.528;2023-03-19T13:54:34;16.80;99.90
27858;DHT22;16852;51.446;6.528;2023-03-19T13:56:54;16.90;99.90
27858;DHT22;16852;51.446;6.528;2023-03-19T13:59:25;17.00;99.90
27858;DHT22;16852;51.446;6.528;2023-03-19T14:03:32;17.10;99.90
27858;DHT22;16852;51.446;6.528;2023-03-19T14:05:35;17.20;99.90
27858;DHT22;16852;51.446;6.528;2023-03-19T14:07:37;17.20;99.90
27858;DHT22;16852;51.446;6.528;2023-03-19T14:09:45;17.30;99.90
27858;DHT22;16852;51.446;6.528;2023-03-19T14:11:47;17.30;99.90